Time;durP1;ratioP1;P1;durP2;ratioP2;P2;SDS_P1;SDS_P2;PMS_P1;PMS_P2;Temp;Humidity;BMP_temperature;BMP_pressure;BME280_temperature;BME280_humidity;BME280_pressure;Samples;Min_cycle;Max_cycle;Signal;HPM_P1;HPM_P2
2021/08/01 00:02:01;;;;;;;;;;;;;;;19.46;66.31;100618.56;5034710;28;1136;-47
2021/08/01 00:04:26;;;;;;;;;;;;;;;19.47;67.24;100624.81;5034279;28;1256;-47
2021/08/01 00:06:51;;;;;;;;;;;;;;;19.46;66.86;100612.28;5036070;28;1981;-49
2021/08/01 00:09:16;;;;;;;;;;;;;;;19.44;66.90;100604.34;5037634;28;1979;-49
2021/08/01 00:11:41;;;;;;;;;;;;;;;19.44;66.51;100609.75;5037793;28;815;-49
2021/08/01 00:14:06;;;;;;;;;;;;;;;19.44;66.80;100612.47;5037550;28;835;-45
2021/08/01 00:16:32;;;;;;;;;;;;;;;19.43;66.29;100597.25;5037783;28;1621;-46
2021/08/01 00:18:57;;;;;;;;;;;;;;;19.43;66.68;100608.06;5037705;28;1965;-47
2021/08/01 00:21:22;;;;;;;;;;;;;;;19.42;66.99;100606.38;5038004;28;906;-48
2021/08/01 00:23:47;;;;;;;;;;;;;;;19.41;66.12;100610.91;5037669;28;958;-45
2021/08/01 00:26:12;;;;;;;;;;;;;;;19.42;67.14;100603.66;5037299;28;1957;-45
2021/08/01 00:28:37;;;;;;;;;;;;;;;19.41;66.81;100594.69;5037700;28;859;-45
2021/08/01 00:31:02;;;;;;;;;;;;;;;19.36;66.78;100602.44;5037276;28;839;-50
2021/08/01 00:33:27;;;;;;;;;;;;;;;19.30;67.25;100607.66;5037452;28;839;-48
2021/08/01 00:35:53;;;;;;;;;;;;;;;19.32;67.06;100592.16;5037518;28;1881;-49
2021/08/01 00:38:18;;;;;;;;;;;;;;;19.29;66.86;100598.72;5052356;28;1825;-51
2021/08/01 00:40:43;;;;;;;;;;;;;;;19.29;66.72;100596.00;5052539;28;1925;-48
2021/08/01 00:43:08;;;;;;;;;;;;;;;19.28;67.05;100593.47;5037042;28;1198;-49
2021/08/01 00:45:34;;;;;;;;;;;;;;;19.30;66.68;100596.88;5037134;28;1898;-49
2021/08/01 00:47:59;;;;;;;;;;;;;;;19.31;66.53;100596.69;5037010;28;1833;-51
2021/08/01 00:50:24;;;;;;;;;;;;;;;19.34;66.87;100595.53;5036855;28;1065;-52
2021/08/01 00:52:49;;;;;;;;;;;;;;;19.35;66.47;100580.97;5037396;28;839;-49
2021/08/01 00:55:14;;;;;;;;;;;;;;;19.35;66.52;100583.69;5037023;28;1561;-52
2021/08/01 00:57:39;;;;;;;;;;;;;;;19.35;66.49;100584.53;5036723;28;1838;-52
2021/08/01 01:00:05;;;;;;;;;;;;;;;19.32;67.03;100589.44;5037072;28;962;-51
2021/08/01 01:02:30;;;;;;;;;;;;;;;19.32;67.18;100589.44;5037093;28;1378;-44
2021/08/01 01:04:56;;;;;;;;;;;;;;;19.32;66.88;100587.59;5036681;28;1918;-47
2021/08/01 01:07:21;;;;;;;;;;;;;;;19.34;66.86;100584.72;5036572;28;1929;-44
2021/08/01 01:09:46;;;;;;;;;;;;;;;19.35;66.53;100583.69;5036939;28;1081;-47
2021/08/01 01:12:11;;;;;;;;;;;;;;;19.35;66.09;100586.38;5036967;28;1096;-50
2021/08/01 01:14:36;;;;;;;;;;;;;;;19.34;66.80;100582.03;5036712;28;1906;-48
2021/08/01 01:17:01;;;;;;;;;;;;;;;19.32;67.06;100581.34;5036190;28;1016;-50
2021/08/01 01:19:26;;;;;;;;;;;;;;;19.29;66.83;100576.25;5035741;28;1126;-51
2021/08/01 01:21:51;;;;;;;;;;;;;;;19.29;66.20;100578.94;5036769;28;1636;-49
2021/08/01 01:24:16;;;;;;;;;;;;;;;19.31;66.77;100574.25;5036394;28;1871;-51
2021/08/01 01:26:41;;;;;;;;;;;;;;;19.32;67.02;100578.63;5036219;28;1894;-51
2021/08/01 01:29:07;;;;;;;;;;;;;;;19.31;66.76;100574.25;5036361;28;1017;-49
2021/08/01 01:31:32;;;;;;;;;;;;;;;19.31;66.83;100577.78;5036247;28;1570;-51
2021/08/01 01:33:57;;;;;;;;;;;;;;;19.31;66.03;100593.16;5036680;28;878;-49
2021/08/01 01:36:22;;;;;;;;;;;;;;;19.31;67.05;100577.78;5036405;28;1943;-47
2021/08/01 01:38:47;;;;;;;;;;;;;;;19.32;66.74;100584.03;5036608;28;1025;-50
2021/08/01 01:41:12;;;;;;;;;;;;;;;19.31;66.77;100576.94;5036482;28;1581;-48
2021/08/01 01:43:37;;;;;;;;;;;;;;;19.30;67.14;100575.25;5036137;28;1088;-48
2021/08/01 01:46:02;;;;;;;;;;;;;;;19.28;66.04;100567.31;5035636;28;1890;-45
2021/08/01 01:48:27;;;;;;;;;;;;;;;19.28;66.50;100567.31;5016748;28;994;-49
2021/08/01 01:50:52;;;;;;;;;;;;;;;19.28;66.70;100561.06;5016300;28;1630;-48
2021/08/01 01:53:17;;;;;;;;;;;;;;;19.28;66.60;100561.06;5016028;28;978;-50
2021/08/01 01:55:42;;;;;;;;;;;;;;;19.28;66.43;100556.50;5029060;28;1965;-49
2021/08/01 01:58:07;;;;;;;;;;;;;;;19.27;66.65;100554.78;5035544;28;1863;-49
2021/08/01 02:00:32;;;;;;;;;;;;;;;19.28;66.81;100561.06;5035704;28;1963;-51
2021/08/01 02:02:58;;;;;;;;;;;;;;;19.27;66.78;100553.94;5036080;28;1409;-48
2021/08/01 02:05:23;;;;;;;;;;;;;;;19.22;66.77;100554.44;5035585;28;1961;-49
2021/08/01 02:07:48;;;;;;;;;;;;;;;19.19;66.87;100551.19;5036068;28;1009;-51
2021/08/01 02:10:13;;;;;;;;;;;;;;;19.20;66.92;100555.59;5035641;28;1553;-49
2021/08/01 02:12:38;;;;;;;;;;;;;;;19.12;67.16;100555.56;5035665;28;1850;-48
2021/08/01 02:15:03;;;;;;;;;;;;;;;19.14;67.22;100556.25;5035209;28;1165;-46
2021/08/01 02:17:28;;;;;;;;;;;;;;;19.18;66.74;100554.91;5035335;28;1181;-45
2021/08/01 02:19:53;;;;;;;;;;;;;;;19.20;67.08;100550.19;5035869;28;1756;-46
2021/08/01 02:22:18;;;;;;;;;;;;;;;19.23;66.37;100547.16;5035486;28;922;-44
2021/08/01 02:24:43;;;;;;;;;;;;;;;19.24;67.24;100547.00;5035436;28;1961;-51
2021/08/01 02:27:08;;;;;;;;;;;;;;;19.23;67.29;100550.72;5035819;28;1060;-49
2021/08/01 02:29:33;;;;;;;;;;;;;;;19.23;67.25;100548.03;5035450;28;1460;-47
2021/08/01 02:31:59;;;;;;;;;;;;;;;19.24;67.17;100543.47;5035075;28;1609;-47
2021/08/01 02:34:24;;;;;;;;;;;;;;;19.22;67.82;100540.06;5035138;28;1931;-51
2021/08/01 02:36:49;;;;;;;;;;;;;;;19.23;66.81;100541.78;5035727;28;843;-49
2021/08/01 02:39:14;;;;;;;;;;;;;;;19.23;67.09;100541.78;5034858;28;1614;-52
2021/08/01 02:41:39;;;;;;;;;;;;;;;19.20;66.88;100542.09;5034823;28;1064;-50
2021/08/01 02:44:04;;;;;;;;;;;;;;;19.15;67.66;100541.75;5032941;28;1936;-47
2021/08/01 02:46:29;;;;;;;;;;;;;;;19.16;67.79;100540.75;5034841;28;1894;-51
2021/08/01 02:48:55;;;;;;;;;;;;;;;19.19;67.51;100545.78;5035018;28;875;-50
2021/08/01 02:51:20;;;;;;;;;;;;;;;19.20;67.63;100547.50;5034497;28;1060;-44
2021/08/01 02:53:45;;;;;;;;;;;;;;;19.20;67.12;100542.09;5034379;28;1910;-44
2021/08/01 02:56:10;;;;;;;;;;;;;;;19.19;67.75;100545.78;5034475;28;874;-46
2021/08/01 02:58:35;;;;;;;;;;;;;;;19.16;67.82;100543.44;5034690;28;1809;-44
2021/08/01 03:01:00;;;;;;;;;;;;;;;19.14;67.29;100542.75;5034599;28;997;-47
2021/08/01 03:03:25;;;;;;;;;;;;;;;19.14;67.89;100537.34;5033603;28;1745;-44
2021/08/01 03:05:50;;;;;;;;;;;;;;;19.14;67.62;100537.34;5034558;28;1979;-43
2021/08/01 03:08:15;;;;;;;;;;;;;;;19.15;67.37;100536.34;5035213;28;1818;-46
2021/08/01 03:10:40;;;;;;;;;;;;;;;19.12;67.71;100544.78;5035096;28;989;-46
2021/08/01 03:13:05;;;;;;;;;;;;;;;19.03;68.34;100544.72;5034647;28;1901;-48
2021/08/01 03:15:30;;;;;;;;;;;;;;;19.01;68.20;100544.03;5035163;28;827;-47
2021/08/01 03:17:55;;;;;;;;;;;;;;;19.06;68.02;100535.44;5035371;28;1460;-47
2021/08/01 03:20:21;;;;;;;;;;;;;;;19.01;68.20;100543.19;5034604;28;1009;-47
2021/08/01 03:22:46;;;;;;;;;;;;;;;19.03;68.04;100533.06;5034782;28;1840;-52
2021/08/01 03:25:11;;;;;;;;;;;;;;;19.08;68.05;100534.28;5034362;28;1886;-48
2021/08/01 03:27:36;;;;;;;;;;;;;;;19.11;67.51;100534.97;5035072;28;839;-48
2021/08/01 03:30:01;;;;;;;;;;;;;;;19.11;67.86;100521.47;5034838;28;803;-49
2021/08/01 03:32:26;;;;;;;;;;;;;;;19.10;67.59;100530.56;5034615;28;1040;-47
2021/08/01 03:34:51;;;;;;;;;;;;;;;19.05;68.60;100534.59;5034271;28;1865;-46
2021/08/01 03:37:16;;;;;;;;;;;;;;;19.02;68.00;100539.47;5034385;28;863;-48
2021/08/01 03:39:41;;;;;;;;;;;;;;;19.05;68.24;100536.47;5035022;28;1740;-48
2021/08/01 03:42:06;;;;;;;;;;;;;;;19.04;67.90;100537.47;5036508;28;1013;-45
2021/08/01 03:44:31;;;;;;;;;;;;;;;19.02;68.61;100539.47;5038011;28;1927;-50
2021/08/01 03:46:56;;;;;;;;;;;;;;;18.96;68.57;100538.28;5038564;28;1943;-48
2021/08/01 03:49:21;;;;;;;;;;;;;;;19.00;68.06;100534.22;5038197;28;917;-46
2021/08/01 03:51:47;;;;;;;;;;;;;;;19.05;68.24;100533.75;5037977;28;1809;-49
2021/08/01 03:54:12;;;;;;;;;;;;;;;18.98;68.39;100530.88;5038411;28;914;-46
2021/08/01 03:56:37;;;;;;;;;;;;;;;18.93;68.43;100541.31;5038473;28;930;-48
2021/08/01 03:59:02;;;;;;;;;;;;;;;18.95;68.42;100541.16;5038263;28;1628;-48
2021/08/01 04:01:27;;;;;;;;;;;;;;;18.98;68.08;100552.47;5038057;28;1800;-47
2021/08/01 04:03:52;;;;;;;;;;;;;;;19.02;68.48;100550.28;5037879;28;1934;-48
2021/08/01 04:06:17;;;;;;;;;;;;;;;19.01;67.72;100546.72;5038322;28;1906;-49
2021/08/01 04:08:42;;;;;;;;;;;;;;;19.01;68.49;100549.44;5038701;28;1587;-47
2021/08/01 04:11:07;;;;;;;;;;;;;;;19.02;68.35;100545.72;5038014;28;940;-46
2021/08/01 04:13:32;;;;;;;;;;;;;;;18.98;68.45;100543.53;5037608;28;1869;-52
2021/08/01 04:15:57;;;;;;;;;;;;;;;18.98;68.59;100538.97;5038057;28;1006;-51
2021/08/01 04:18:22;;;;;;;;;;;;;;;19.01;67.43;100541.34;5037953;28;1795;-51
2021/08/01 04:20:47;;;;;;;;;;;;;;;19.02;67.79;100537.63;5038089;28;973;-48
2021/08/01 04:23:12;;;;;;;;;;;;;;;19.00;67.89;100539.63;5037713;28;1867;-50
2021/08/01 04:25:38;;;;;;;;;;;;;;;19.01;68.34;100538.63;5052834;28;1971;-49
2021/08/01 04:28:03;;;;;;;;;;;;;;;19.00;67.57;100541.50;5037736;28;1642;-49
2021/08/01 04:30:28;;;;;;;;;;;;;;;18.94;68.40;100537.59;5037763;28;807;-47
2021/08/01 04:32:53;;;;;;;;;;;;;;;18.88;68.13;100540.94;5037312;28;1973;-50
2021/08/01 04:35:18;;;;;;;;;;;;;;;18.94;67.69;100543.00;5037523;28;823;-47
2021/08/01 04:37:43;;;;;;;;;;;;;;;18.96;67.92;100535.59;5037783;28;1631;-46
2021/08/01 04:40:08;;;;;;;;;;;;;;;18.98;67.59;100541.69;5037165;28;1813;-46
2021/08/01 04:42:33;;;;;;;;;;;;;;;18.98;67.68;100547.09;5037157;28;941;-46
2021/08/01 04:44:58;;;;;;;;;;;;;;;19.01;67.95;100552.13;5037217;28;1894;-47
2021/08/01 04:47:23;;;;;;;;;;;;;;;19.00;67.80;100547.75;5037333;28;1867;-47
2021/08/01 04:49:49;;;;;;;;;;;;;;;18.99;67.54;100548.75;5037072;28;2048;-43
2021/08/01 04:52:14;;;;;;;;;;;;;;;19.01;68.39;100549.44;5037029;28;928;-48
2021/08/01 04:54:39;;;;;;;;;;;;;;;19.05;67.77;100544.56;5037319;28;969;-49
2021/08/01 04:57:04;;;;;;;;;;;;;;;19.05;68.01;100548.09;5037410;28;1617;-50
2021/08/01 04:59:29;;;;;;;;;;;;;;;19.05;67.70;100553.50;5036738;28;1939;-50
2021/08/01 05:01:54;;;;;;;;;;;;;;;19.03;67.91;100550.13;5036859;28;1958;-46
2021/08/01 05:04:19;;;;;;;;;;;;;;;19.01;67.97;100554.84;5036904;28;1341;-48
2021/08/01 05:06:44;;;;;;;;;;;;;;;19.03;67.92;100552.81;5036794;28;1914;-49
2021/08/01 05:09:10;;;;;;;;;;;;;;;19.04;67.68;100551.81;5036244;28;1440;-47
2021/08/01 05:11:35;;;;;;;;;;;;;;;19.04;67.90;100550.97;5036398;28;1722;-49
2021/08/01 05:14:00;;;;;;;;;;;;;;;19.05;67.95;100553.50;5037026;28;1014;-45
2021/08/01 05:16:25;;;;;;;;;;;;;;;19.04;67.70;100551.81;5036827;28;1123;-48
2021/08/01 05:18:50;;;;;;;;;;;;;;;18.96;67.74;100546.38;5036624;28;1918;-49
2021/08/01 05:21:15;;;;;;;;;;;;;;;18.97;68.32;100548.09;5036688;28;1025;-47
2021/08/01 05:23:40;;;;;;;;;;;;;;;18.94;68.12;100542.16;5036289;28;1456;-43
2021/08/01 05:26:05;;;;;;;;;;;;;;;18.89;68.75;100549.88;5036725;28;1959;-46
2021/08/01 05:28:30;;;;;;;;;;;;;;;18.89;68.73;100539.09;5034238;28;1799;-51
2021/08/01 05:30:55;;;;;;;;;;;;;;;18.97;68.26;100542.69;5016882;28;911;-45
2021/08/01 05:33:20;;;;;;;;;;;;;;;18.98;68.52;100544.38;5029573;28;1906;-49
2021/08/01 05:35:45;;;;;;;;;;;;;;;18.94;68.83;100553.81;5034646;28;2340;-49
2021/08/01 05:38:10;;;;;;;;;;;;;;;18.96;68.76;100550.94;5033533;28;2641;-48
2021/08/01 05:40:36;;;;;;;;;;;;;;;19.01;68.90;100544.03;5035401;28;1706;-45
2021/08/01 05:43:01;;;;;;;;;;;;;;;19.05;68.17;100548.09;5034920;28;1751;-45
2021/08/01 05:45:26;;;;;;;;;;;;;;;19.06;68.29;100549.81;5033226;28;1898;-45
2021/08/01 05:47:51;;;;;;;;;;;;;;;19.03;68.30;100547.41;5035124;28;2120;-44
2021/08/01 05:50:16;;;;;;;;;;;;;;;19.01;68.12;100548.59;5035658;28;1664;-45
2021/08/01 05:52:41;;;;;;;;;;;;;;;18.95;69.15;100544.69;5036043;28;1815;-46
2021/08/01 05:55:06;;;;;;;;;;;;;;;18.95;68.49;100551.94;5034682;28;2043;-45
2021/08/01 05:57:31;;;;;;;;;;;;;;;18.96;68.77;100553.66;5035560;28;1725;-46
2021/08/01 05:59:56;;;;;;;;;;;;;;;18.90;69.62;100555.13;5035488;28;1861;-44
2021/08/01 06:02:21;;;;;;;;;;;;;;;18.94;69.32;100558.34;5035413;28;1676;-47
2021/08/01 06:04:47;;;;;;;;;;;;;;;18.83;69.54;100551.34;5034875;28;1914;-47
2021/08/01 06:07:12;;;;;;;;;;;;;;;18.85;69.32;100552.03;5035031;28;1796;-48
2021/08/01 06:09:37;;;;;;;;;;;;;;;18.89;68.68;100556.13;5035511;28;1792;-43
2021/08/01 06:12:02;;;;;;;;;;;;;;;18.80;69.47;100557.09;5035907;28;1883;-45
2021/08/01 06:14:27;;;;;;;;;;;;;;;18.78;69.40;100556.41;5034090;28;2063;-47
2021/08/01 06:16:52;;;;;;;;;;;;;;;18.79;69.50;100555.41;5034545;28;1638;-44
2021/08/01 06:19:17;;;;;;;;;;;;;;;18.81;69.66;100553.38;5034519;28;1709;-43
2021/08/01 06:21:42;;;;;;;;;;;;;;;18.85;69.37;100560.16;5034302;28;1627;-44
2021/08/01 06:24:07;;;;;;;;;;;;;;;18.81;69.56;100549.84;5033940;28;1985;-44
2021/08/01 06:26:32;;;;;;;;;;;;;;;18.84;69.89;100553.06;5034880;28;1894;-45
2021/08/01 06:28:57;;;;;;;;;;;;;;;18.95;69.06;100560.91;5034797;28;1889;-46
2021/08/01 06:31:22;;;;;;;;;;;;;;;18.97;69.45;100558.88;5035066;28;1759;-46
2021/08/01 06:33:48;;;;;;;;;;;;;;;18.99;69.68;100554.16;5035221;28;1892;-46
2021/08/01 06:36:13;;;;;;;;;;;;;;;19.00;68.53;100566.63;5034917;28;1710;-44
2021/08/01 06:38:38;;;;;;;;;;;;;;;18.86;69.09;100561.84;5050586;28;1896;-46
2021/08/01 06:41:03;;;;;;;;;;;;;;;18.87;69.85;100558.13;5035087;28;1709;-44
2021/08/01 06:43:28;;;;;;;;;;;;;;;18.90;68.82;100556.97;5034749;28;1581;-47
2021/08/01 06:45:53;;;;;;;;;;;;;;;18.79;69.11;100568.91;5034362;28;1893;-44
2021/08/01 06:48:18;;;;;;;;;;;;;;;18.70;70.07;100561.75;5034982;28;1805;-45
2021/08/01 06:50:43;;;;;;;;;;;;;;;18.63;70.51;100566.91;5034807;28;1624;-44
2021/08/01 06:53:08;;;;;;;;;;;;;;;18.71;69.89;100566.13;5034598;28;1833;-47
2021/08/01 06:55:33;;;;;;;;;;;;;;;18.75;69.84;100564.81;5034982;28;1737;-44
2021/08/01 06:57:58;;;;;;;;;;;;;;;18.76;70.30;100569.22;5032841;28;1646;-44
2021/08/01 07:00:24;;;;;;;;;;;;;;;18.87;69.60;100570.78;5033990;28;1637;-44
2021/08/01 07:02:49;;;;;;;;;;;;;;;18.90;69.27;100574.03;5033573;28;1733;-46
2021/08/01 07:05:14;;;;;;;;;;;;;;;18.93;69.37;100565.59;5033222;28;1911;-45
2021/08/01 07:07:39;;;;;;;;;;;;;;;18.88;69.15;100564.38;5033146;28;1860;-46
2021/08/01 07:10:04;;;;;;;;;;;;;;;18.92;69.60;100560.38;5033796;28;1565;-44
2021/08/01 07:12:29;;;;;;;;;;;;;;;18.92;69.04;100566.63;5049350;28;1606;-49
2021/08/01 07:14:54;;;;;;;;;;;;;;;18.82;69.43;100568.56;5032552;28;1749;-48
2021/08/01 07:17:19;;;;;;;;;;;;;;;18.79;70.15;100566.22;5036401;28;1897;-48
2021/08/01 07:19:44;;;;;;;;;;;;;;;18.84;69.83;100563.84;5037784;28;1748;-46
2021/08/01 07:22:09;;;;;;;;;;;;;;;18.88;69.29;100573.34;5038060;28;1735;-44
2021/08/01 07:24:34;;;;;;;;;;;;;;;18.89;69.73;100566.94;5037907;28;1654;-46
2021/08/01 07:26:59;;;;;;;;;;;;;;;18.93;69.19;100568.31;5037675;28;2004;-46
2021/08/01 07:29:24;;;;;;;;;;;;;;;18.98;69.32;100568.69;5037888;28;1799;-48
2021/08/01 07:31:50;;;;;;;;;;;;;;;18.98;69.03;100565.13;5038320;28;1611;-46
2021/08/01 07:34:15;;;;;;;;;;;;;;;18.96;69.02;100570.69;5038047;28;1785;-47
2021/08/01 07:36:40;;;;;;;;;;;;;;;18.97;69.13;100572.38;5037774;28;1733;-49
2021/08/01 07:39:06;;;;;;;;;;;;;;;18.94;69.91;100570.00;5037492;28;1678;-49
2021/08/01 07:41:31;;;;;;;;;;;;;;;18.94;69.34;100564.59;5037332;28;1796;-51
2021/08/01 07:43:56;;;;;;;;;;;;;;;18.96;68.82;100573.41;5037414;28;1677;-51
2021/08/01 07:46:21;;;;;;;;;;;;;;;18.94;69.61;100569.16;5035946;28;1882;-51
2021/08/01 07:48:46;;;;;;;;;;;;;;;18.81;70.53;100566.06;5037517;28;1668;-50
2021/08/01 07:51:11;;;;;;;;;;;;;;;18.88;69.87;100567.94;5038523;28;1564;-49
2021/08/01 07:53:36;;;;;;;;;;;;;;;18.88;69.78;100565.22;5053173;28;1825;-47
2021/08/01 07:56:01;;;;;;;;;;;;;;;18.96;69.18;100569.84;5037556;28;1716;-50
2021/08/01 07:58:26;;;;;;;;;;;;;;;18.97;70.41;100564.28;5053453;28;1824;-50
2021/08/01 08:00:52;;;;;;;;;;;;;;;18.99;70.87;100573.06;5037780;28;1723;-51
2021/08/01 08:03:17;;;;;;;;;;;;;;;18.90;70.80;100565.06;5037964;28;2060;-47
2021/08/01 08:05:42;;;;;;;;;;;;;;;18.90;70.86;100571.31;5037190;28;1913;-46
2021/08/01 08:08:07;;;;;;;;;;;;;;;18.96;71.64;100562.59;5052986;28;1618;-44
2021/08/01 08:10:32;;;;;;;;;;;;;;;18.98;71.53;100565.97;5037956;28;1651;-49
2021/08/01 08:12:57;;;;;;;;;;;;;;;19.06;70.78;100570.56;5037867;28;1831;-42
2021/08/01 08:15:22;;;;;;;;;;;;;;;18.98;70.80;100565.97;5037427;28;1884;-44
2021/08/01 08:17:47;;;;;;;;;;;;;;;19.05;71.77;100577.81;5037403;28;2065;-46
2021/08/01 08:20:12;;;;;;;;;;;;;;;19.15;69.94;100571.47;5037585;28;2139;-43
2021/08/01 08:22:37;;;;;;;;;;;;;;;19.33;70.76;100569.53;5037344;28;1649;-44
2021/08/01 08:25:02;;;;;;;;;;;;;;;19.51;69.78;100566.75;5037402;28;1964;-46
2021/08/01 08:27:28;;;;;;;;;;;;;;;19.61;71.61;100568.28;5036763;28;1849;-42
2021/08/01 08:29:53;;;;;;;;;;;;;;;19.69;71.26;100562.91;5037174;28;1052;-43
2021/08/01 08:32:18;;;;;;;;;;;;;;;19.77;70.55;100576.44;5037691;28;1025;-42
2021/08/01 08:34:43;;;;;;;;;;;;;;;19.85;70.97;100580.19;5028640;28;1833;-50
2021/08/01 08:37:09;;;;;;;;;;;;;;;19.99;70.68;100574.97;5032310;28;1635;-46
2021/08/01 08:39:34;;;;;;;;;;;;;;;20.13;71.45;100576.16;5022175;28;1627;-41
2021/08/01 08:41:59;;;;;;;;;;;;;;;20.19;70.73;100586.31;5017809;28;1070;-43
2021/08/01 08:44:24;;;;;;;;;;;;;;;20.21;70.84;100587.00;5019674;28;1686;-43
2021/08/01 08:46:49;;;;;;;;;;;;;;;20.21;70.81;100600.53;5022189;28;1890;-44
2021/08/01 08:49:15;;;;;;;;;;;;;;;20.09;69.44;100599.13;5019663;28;1904;-46
2021/08/01 08:51:40;;;;;;;;;;;;;;;20.00;68.57;100605.56;5017579;28;848;-45
2021/08/01 08:54:05;;;;;;;;;;;;;;;20.11;69.73;100608.78;5027029;28;1274;-45
2021/08/01 08:56:30;;;;;;;;;;;;;;;20.08;68.82;100625.34;5037078;28;1840;-49
2021/08/01 08:58:55;;;;;;;;;;;;;;;20.01;67.73;100618.06;5037200;28;985;-47
2021/08/01 09:01:20;;;;;;;;;;;;;;;19.96;67.78;100626.69;5036878;28;1426;-47
2021/08/01 09:03:45;;;;;;;;;;;;;;;19.97;68.42;100614.00;5036890;28;1105;-42
2021/08/01 09:06:11;;;;;;;;;;;;;;;20.10;68.17;100611.66;5035838;28;1985;-48
2021/08/01 09:08:36;;;;;;;;;;;;;;;20.14;67.87;100607.59;5034787;28;1623;-41
2021/08/01 09:11:01;;;;;;;;;;;;;;;20.19;68.20;100621.50;5037333;28;846;-49
2021/08/01 09:13:26;;;;;;;;;;;;;;;20.24;67.58;100621.84;5036258;28;1934;-49
2021/08/01 09:15:51;;;;;;;;;;;;;;;20.23;67.44;100628.28;5024705;28;1571;-50
2021/08/01 09:18:18;;;;;;;;;;;;;;;20.27;68.23;100626.06;5022115;28;1764;-48
2021/08/01 09:20:43;;;;;;;;;;;;;;;20.42;68.26;100630.66;5016981;28;826;-45
2021/08/01 09:23:08;;;;;;;;;;;;;;;20.43;68.10;100637.75;5016902;28;1001;-50
2021/08/01 09:25:33;;;;;;;;;;;;;;;20.35;68.26;100642.31;5036659;28;1959;-49
2021/08/01 09:27:59;;;;;;;;;;;;;;;20.28;68.01;100641.28;5036925;28;939;-48
2021/08/01 09:30:24;;;;;;;;;;;;;;;20.17;67.71;100644.31;5036599;28;997;-45
2021/08/01 09:32:49;;;;;;;;;;;;;;;20.26;67.91;100638.72;5036514;28;1045;-46
2021/08/01 09:35:14;;;;;;;;;;;;;;;20.18;68.72;100641.44;5036504;28;1948;-48
2021/08/01 09:37:39;;;;;;;;;;;;;;;20.12;68.09;100633.97;5036711;28;989;-47
2021/08/01 09:40:04;;;;;;;;;;;;;;;19.99;68.08;100636.34;5035241;28;815;-47
2021/08/01 09:42:29;;;;;;;;;;;;;;;19.88;69.21;100633.94;5036248;28;1041;-49
2021/08/01 09:44:54;;;;;;;;;;;;;;;19.93;68.30;100623.47;5035935;28;1890;-47
2021/08/01 09:47:19;;;;;;;;;;;;;;;19.83;69.36;100625.47;5036465;28;994;-45
2021/08/01 09:49:44;;;;;;;;;;;;;;;19.85;68.23;100626.16;5036286;28;1006;-48
2021/08/01 09:52:09;;;;;;;;;;;;;;;19.80;69.33;100623.09;5036135;28;1534;-49
2021/08/01 09:54:34;;;;;;;;;;;;;;;19.85;69.02;100618.91;5035905;28;1834;-47
2021/08/01 09:56:59;;;;;;;;;;;;;;;19.90;69.12;100629.19;5036249;28;1009;-45
2021/08/01 09:59:25;;;;;;;;;;;;;;;19.92;68.57;100625.31;5036248;28;869;-45
2021/08/01 10:01:50;;;;;;;;;;;;;;;19.89;68.67;100616.69;5035816;28;838;-46
2021/08/01 10:04:15;;;;;;;;;;;;;;;19.92;68.36;100619.06;5035527;28;1798;-46
2021/08/01 10:06:40;;;;;;;;;;;;;;;19.85;68.36;100618.91;5035879;28;1910;-45
2021/08/01 10:09:05;;;;;;;;;;;;;;;19.81;68.87;100616.69;5035713;28;946;-45
2021/08/01 10:11:30;;;;;;;;;;;;;;;19.93;68.70;100620.75;5032481;28;1571;-47
2021/08/01 10:13:55;;;;;;;;;;;;;;;19.65;69.70;100622.88;5027199;28;1626;-44
2021/08/01 10:16:20;;;;;;;;;;;;;;;19.61;69.71;100627.75;5027095;28;1625;-46
2021/08/01 10:18:45;;;;;;;;;;;;;;;19.57;70.39;100630.94;5032441;28;1558;-42
2021/08/01 10:21:10;;;;;;;;;;;;;;;19.48;70.41;100638.16;5035733;28;831;-43
2021/08/01 10:23:36;;;;;;;;;;;;;;;19.32;70.22;100633.53;5034593;28;1674;-46
2021/08/01 10:26:01;;;;;;;;;;;;;;;19.40;69.72;100635.41;5026299;28;1958;-47
2021/08/01 10:28:26;;;;;;;;;;;;;;;19.41;70.50;100637.09;5015607;28;945;-44
2021/08/01 10:30:52;;;;;;;;;;;;;;;19.36;69.61;100636.72;5015487;28;857;-45
2021/08/01 10:33:18;;;;;;;;;;;;;;;19.33;70.09;100628.97;5022276;28;1863;-45
2021/08/01 10:35:43;;;;;;;;;;;;;;;19.41;69.96;100629.00;5025294;28;1693;-42
2021/08/01 10:38:11;;;;;;;;;;;;;;;19.51;70.86;100637.03;5025903;28;1724;-45
2021/08/01 10:40:36;;;;;;;;;;;;;;;19.59;69.87;100627.06;5026149;28;1516;-44
2021/08/01 10:43:01;;;;;;;;;;;;;;;19.64;70.10;100630.16;5027143;28;1532;-43
2021/08/01 10:45:26;;;;;;;;;;;;;;;19.57;70.06;100631.78;5026446;28;1951;-47
2021/08/01 10:47:51;;;;;;;;;;;;;;;19.69;70.11;100627.81;5025111;28;1500;-46
2021/08/01 10:50:16;;;;;;;;;;;;;;;19.57;69.71;100634.50;5033382;28;1687;-43
2021/08/01 10:52:41;;;;;;;;;;;;;;;19.52;69.59;100628.75;5034659;28;1889;-48
2021/08/01 10:55:06;;;;;;;;;;;;;;;19.63;68.94;100639.25;5027054;28;1640;-45
2021/08/01 10:57:32;;;;;;;;;;;;;;;19.77;68.47;100633.22;5035348;28;997;-45
2021/08/01 10:59:57;;;;;;;;;;;;;;;19.81;69.42;100630.19;5031451;28;1492;-47
2021/08/01 11:02:22;;;;;;;;;;;;;;;19.91;69.20;100633.59;5034475;28;1949;-42
2021/08/01 11:04:47;;;;;;;;;;;;;;;19.86;69.62;100633.25;5034739;28;1086;-45
2021/08/01 11:07:12;;;;;;;;;;;;;;;19.83;70.49;100639.00;5034995;28;1910;-44
2021/08/01 11:09:37;;;;;;;;;;;;;;;19.58;69.96;100644.31;5035201;28;895;-47
2021/08/01 11:12:02;;;;;;;;;;;;;;;19.55;70.81;100635.66;5017170;28;1883;-46
2021/08/01 11:14:27;;;;;;;;;;;;;;;19.47;70.28;100639.16;5034730;28;1005;-46
2021/08/01 11:16:52;;;;;;;;;;;;;;;19.51;71.22;100637.88;5034653;28;894;-43
2021/08/01 11:19:18;;;;;;;;;;;;;;;19.35;71.58;100643.13;5035080;28;925;-44
2021/08/01 11:21:47;;;;;;;;;;;;;;;19.19;72.13;100656.56;5034690;28;1638;-45
2021/08/01 11:24:12;;;;;;;;;;;;;;;19.21;71.45;100647.28;5034948;28;2040;-45
2021/08/01 11:26:37;;;;;;;;;;;;;;;19.31;71.83;100647.19;5034909;28;1894;-43
2021/08/01 11:29:02;;;;;;;;;;;;;;;19.38;72.81;100648.22;5035149;28;870;-42
2021/08/01 11:31:27;;;;;;;;;;;;;;;19.49;71.59;100639.84;5034387;28;854;-42
2021/08/01 11:33:52;;;;;;;;;;;;;;;19.54;72.42;100651.03;5034569;28;1839;-43
2021/08/01 11:36:17;;;;;;;;;;;;;;;19.44;73.23;100647.59;5034831;28;796;-47
2021/08/01 11:38:42;;;;;;;;;;;;;;;19.32;71.55;100648.88;5035018;28;809;-43
2021/08/01 11:41:08;;;;;;;;;;;;;;;19.43;72.55;100654.00;5034743;28;1483;-43
2021/08/01 11:43:33;;;;;;;;;;;;;;;19.34;70.81;100647.72;5034225;28;1487;-47
2021/08/01 11:45:58;;;;;;;;;;;;;;;19.41;72.60;100661.41;5033940;28;1957;-47
2021/08/01 11:48:23;;;;;;;;;;;;;;;19.41;71.21;100656.00;5034325;28;961;-41
2021/08/01 11:50:48;;;;;;;;;;;;;;;19.47;71.48;100657.25;5031593;28;1750;-41
2021/08/01 11:53:13;;;;;;;;;;;;;;;19.41;72.74;100654.16;5029932;28;1576;-42
2021/08/01 11:55:38;;;;;;;;;;;;;;;19.37;71.95;100660.03;5025915;28;1779;-43
2021/08/01 11:58:03;;;;;;;;;;;;;;;19.22;72.19;100664.34;5017953;28;1676;-42
2021/08/01 12:00:28;;;;;;;;;;;;;;;19.27;72.05;100668.28;5022123;28;1588;-44
2021/08/01 12:02:53;;;;;;;;;;;;;;;19.27;73.46;100653.91;5033540;28;1900;-48
2021/08/01 12:05:18;;;;;;;;;;;;;;;19.29;73.00;100651.91;5035580;28;1914;-42
2021/08/01 12:07:44;;;;;;;;;;;;;;;19.34;71.85;100654.97;5037651;28;1626;-50
2021/08/01 12:10:09;;;;;;;;;;;;;;;19.26;72.23;100660.31;5037887;28;1445;-44
2021/08/01 12:12:34;;;;;;;;;;;;;;;19.22;72.23;100658.94;5032932;28;1293;-43
2021/08/01 12:14:59;;;;;;;;;;;;;;;19.34;74.18;100663.09;5018394;28;1674;-46
2021/08/01 12:17:24;;;;;;;;;;;;;;;19.35;73.49;100662.06;5032529;28;1544;-47
2021/08/01 12:19:51;;;;;;;;;;;;;;;19.34;75.55;100665.78;5037746;28;1716;-46
2021/08/01 12:22:16;;;;;;;;;;;;;;;19.38;72.32;100653.63;5038207;28;1803;-45
2021/08/01 12:24:41;;;;;;;;;;;;;;;19.41;75.30;100664.13;5037507;28;894;-45
2021/08/01 12:27:06;;;;;;;;;;;;;;;19.47;75.75;100668.91;5034047;28;1886;-46
2021/08/01 12:29:32;;;;;;;;;;;;;;;19.27;72.21;100664.72;5017503;28;807;-45
2021/08/01 12:31:57;;;;;;;;;;;;;;;18.84;73.59;100665.59;5017504;28;850;-42
2021/08/01 12:34:22;;;;;;;;;;;;;;;18.80;73.01;100681.28;5036229;28;1809;-43
2021/08/01 12:36:47;;;;;;;;;;;;;;;18.76;73.26;100674.50;5037283;28;1975;-44